createdAt,value
2018-12-05T00:01:35.057Z,4.90
2018-12-05T00:04:04.490Z,9.23
2018-12-05T00:06:33.811Z,4.93
2018-12-05T00:09:03.808Z,8.90
2018-12-05T00:11:32.867Z,7.20
2018-12-05T00:14:02.302Z,4.83
2018-12-05T00:16:31.260Z,6.30
2018-12-05T00:19:00.159Z,5.03
2018-12-05T00:21:29.016Z,10.95
2018-12-05T00:23:58.319Z,7.17
2018-12-05T00:26:27.698Z,4.23
2018-12-05T00:28:57.046Z,3.43
2018-12-05T00:31:26.215Z,7.43
2018-12-05T00:33:55.466Z,7.10
2018-12-05T00:36:24.827Z,4.47
2018-12-05T00:38:53.855Z,5.53
2018-12-05T00:41:22.786Z,6.03
2018-12-05T00:43:52.139Z,8.90
2018-12-05T00:46:21.652Z,5.93
2018-12-05T00:48:50.671Z,3.73
2018-12-05T00:51:20.601Z,5.73
2018-12-05T00:53:49.888Z,7.80
2018-12-05T00:56:19.804Z,6.93
2018-12-05T00:58:49.113Z,5.20
2018-12-05T01:01:18.148Z,10.27
2018-12-05T01:03:47.435Z,5.43
2018-12-05T01:06:16.855Z,4.13
2018-12-05T01:08:45.823Z,8.23
2018-12-05T01:11:15.118Z,10.63
2018-12-05T01:13:44.484Z,12.03
2018-12-05T01:16:13.806Z,6.77
2018-12-05T01:18:43.162Z,7.87
2018-12-05T01:21:12.432Z,5.63
2018-12-05T01:23:41.383Z,5.40
2018-12-05T01:26:10.573Z,6.93
2018-12-05T01:28:39.907Z,7.50
2018-12-05T01:31:09.171Z,10.40
2018-12-05T01:33:38.524Z,5.80
2018-12-05T01:36:07.840Z,5.53
2018-12-05T01:38:37.204Z,6.07
2018-12-05T01:41:06.154Z,6.07
2018-12-05T01:43:40.497Z,5.67
2018-12-05T01:46:10.128Z,7.97
2018-12-05T01:48:39.407Z,9.63
2018-12-05T01:51:08.798Z,6.90
2018-12-05T01:53:38.143Z,6.20
2018-12-05T01:56:07.158Z,11.70
2018-12-05T01:58:36.432Z,7.87
2018-12-05T02:01:05.363Z,8.17
2018-12-05T02:03:34.624Z,8.07
2018-12-05T02:06:04.159Z,6.17
2018-12-05T02:08:33.568Z,8.30
2018-12-05T02:11:02.525Z,9.57
2018-12-05T02:13:31.352Z,9.27
2018-12-05T02:16:00.616Z,9.07
2018-12-05T02:18:29.526Z,7.08
2018-12-05T02:20:58.695Z,11.00
2018-12-05T02:23:27.976Z,6.97
2018-12-05T02:25:56.862Z,15.43
2018-12-05T02:28:26.099Z,13.53
2018-12-05T02:30:55.010Z,13.83
2018-12-05T02:33:24.169Z,9.97
2018-12-05T02:35:53.412Z,14.53
2018-12-05T02:38:22.336Z,14.33
2018-12-05T02:40:51.661Z,7.40
2018-12-05T02:43:21.467Z,12.47
2018-12-05T02:45:51.011Z,11.70
2018-12-05T02:48:19.878Z,12.93
2018-12-05T02:50:48.715Z,12.53
2018-12-05T02:53:17.940Z,15.37
2018-12-05T02:55:47.184Z,12.47
2018-12-05T02:58:16.498Z,13.10
2018-12-05T03:00:45.407Z,14.63
2018-12-05T03:03:14.595Z,11.30
2018-12-05T03:05:43.916Z,18.87
2018-12-05T03:08:13.240Z,12.63
2018-12-05T03:10:42.178Z,14.93
2018-12-05T03:13:10.999Z,19.37
2018-12-05T03:15:40.219Z,18.97
2018-12-05T03:18:09.496Z,12.70
2018-12-05T03:20:38.760Z,14.40
2018-12-05T03:23:08.043Z,17.02
2018-12-05T03:25:37.336Z,17.10
2018-12-05T03:28:06.615Z,17.20
2018-12-05T03:30:35.559Z,23.90
2018-12-05T03:33:04.859Z,19.93
2018-12-05T03:35:39.173Z,16.10
2018-12-05T03:38:08.592Z,22.47
2018-12-05T03:40:38.019Z,20.70
2018-12-05T03:43:07.310Z,23.40
2018-12-05T03:45:36.612Z,19.32
2018-12-05T03:48:05.991Z,18.67
2018-12-05T03:50:34.922Z,18.83
2018-12-05T03:53:03.803Z,16.00
2018-12-05T03:55:33.035Z,22.55
2018-12-05T03:58:02.430Z,26.23
2018-12-05T04:00:31.781Z,14.83
2018-12-05T04:03:00.742Z,20.03
2018-12-05T04:05:29.630Z,20.37
2018-12-05T04:07:58.951Z,18.43
2018-12-05T04:10:27.847Z,19.70
2018-12-05T04:12:56.676Z,22.07
2018-12-05T04:15:25.898Z,16.53
2018-12-05T04:17:56.233Z,18.97
2018-12-05T04:20:25.131Z,14.87
2018-12-05T04:22:54.311Z,14.73
2018-12-05T04:25:23.588Z,17.67
2018-12-05T04:27:52.827Z,23.03
2018-12-05T04:30:22.106Z,19.73
2018-12-05T04:32:51.366Z,20.50
2018-12-05T04:35:20.640Z,13.00
2018-12-05T04:37:49.907Z,14.30
2018-12-05T04:40:19.546Z,10.97
2018-12-05T04:42:48.817Z,8.90
2018-12-05T04:45:18.112Z,9.77
2018-12-05T04:47:47.407Z,10.33
2018-12-05T04:50:16.694Z,11.30
2018-12-05T04:52:45.934Z,8.33
2018-12-05T04:55:15.206Z,9.70
2018-12-05T04:57:44.484Z,8.80
2018-12-05T05:00:13.431Z,5.93
2018-12-05T05:02:42.634Z,11.33
2018-12-05T05:05:11.912Z,10.63
2018-12-05T05:07:40.820Z,9.97
2018-12-05T05:10:11.699Z,13.50
2018-12-05T05:12:40.887Z,8.23
2018-12-05T05:15:09.758Z,6.60
2018-12-05T05:17:38.911Z,12.33
2018-12-05T05:20:08.845Z,9.77
2018-12-05T05:22:38.101Z,7.20
2018-12-05T05:25:07.380Z,8.20
2018-12-05T05:27:36.755Z,6.63
2018-12-05T05:30:06.738Z,6.67
2018-12-05T05:32:35.983Z,10.43
2018-12-05T05:35:05.678Z,12.80
2018-12-05T05:37:34.968Z,6.87
2018-12-05T05:40:04.376Z,9.23
2018-12-05T05:42:33.565Z,9.03
2018-12-05T05:45:02.843Z,9.23
2018-12-05T05:47:32.152Z,9.77
2018-12-05T05:50:01.055Z,7.43
2018-12-05T05:52:29.857Z,4.77
2018-12-05T05:54:58.631Z,5.97
2018-12-05T05:57:27.855Z,3.70
2018-12-05T05:59:56.754Z,5.37
2018-12-05T06:02:26.174Z,9.00
2018-12-05T06:04:55.451Z,5.70
2018-12-05T06:07:24.690Z,6.60
2018-12-05T06:09:53.955Z,7.53
2018-12-05T06:12:23.239Z,5.22
2018-12-05T06:14:52.638Z,7.67
2018-12-05T06:17:21.542Z,7.60
2018-12-05T06:19:50.367Z,6.23
2018-12-05T06:22:19.143Z,6.77
2018-12-05T06:24:48.326Z,8.37
2018-12-05T06:27:17.612Z,6.27
2018-12-05T06:29:46.851Z,7.67
2018-12-05T06:32:16.115Z,5.80
2018-12-05T06:34:45.408Z,9.27
2018-12-05T06:37:14.328Z,9.07
2018-12-05T06:39:43.607Z,14.00
2018-12-05T06:42:12.563Z,24.67
2018-12-05T06:44:41.783Z,23.77
2018-12-05T06:47:11.059Z,24.57
2018-12-05T06:49:40.006Z,20.07
2018-12-05T06:52:08.886Z,22.43
2018-12-05T06:54:38.318Z,19.97
2018-12-05T06:57:07.307Z,24.20
2018-12-05T06:59:36.600Z,21.47
2018-12-05T07:02:05.728Z,15.53
2018-12-05T07:04:34.989Z,24.60
2018-12-05T07:07:04.413Z,19.23
2018-12-05T07:09:33.515Z,15.47
2018-12-05T07:12:02.449Z,18.60
2018-12-05T07:14:31.256Z,16.87
2018-12-05T07:17:00.151Z,18.63
2018-12-05T07:19:28.992Z,15.93
2018-12-05T07:21:57.843Z,16.83
2018-12-05T07:24:26.959Z,28.33
2018-12-05T07:26:56.901Z,19.73
2018-12-05T07:29:25.803Z,26.50
2018-12-05T07:31:55.075Z,22.03
2018-12-05T07:34:23.974Z,28.93
2018-12-05T07:36:52.867Z,30.33
2018-12-05T07:39:28.494Z,41.57
2018-12-05T07:41:57.922Z,33.97
2018-12-05T07:44:27.213Z,24.47
2018-12-05T07:46:56.527Z,40.13
2018-12-05T07:49:25.546Z,31.53
2018-12-05T07:51:54.757Z,37.57
2018-12-05T07:54:23.719Z,33.67
2018-12-05T07:56:52.711Z,28.10
2018-12-05T07:59:22.038Z,27.27
2018-12-05T08:01:51.399Z,31.53
2018-12-05T08:04:21.482Z,25.30
2018-12-05T08:06:50.781Z,46.23
2018-12-05T08:09:19.687Z,31.07
2018-12-05T08:11:48.510Z,37.77
2018-12-05T08:14:17.383Z,45.20
2018-12-05T08:16:46.681Z,38.10
2018-12-05T08:19:15.675Z,36.27
2018-12-05T08:21:44.543Z,32.03
2018-12-05T08:24:13.387Z,42.77
2018-12-05T08:26:42.655Z,33.57
2018-12-05T08:29:11.634Z,33.63
2018-12-05T08:31:40.873Z,32.43
2018-12-05T08:34:10.446Z,27.27
2018-12-05T08:36:39.755Z,28.20
2018-12-05T08:39:09.585Z,36.00
2018-12-05T08:41:38.487Z,22.35
2018-12-05T08:44:07.724Z,15.37
2018-12-05T08:46:36.750Z,17.83
2018-12-05T08:49:05.629Z,18.00
2018-12-05T08:51:34.514Z,11.73
2018-12-05T08:54:03.446Z,19.90
2018-12-05T08:56:32.403Z,15.10
2018-12-05T08:59:01.275Z,18.92
2018-12-05T09:01:30.122Z,21.63
2018-12-05T09:03:59.397Z,27.40
2018-12-05T09:06:28.919Z,20.60
2018-12-05T09:08:58.304Z,18.60
2018-12-05T09:11:27.593Z,17.80
2018-12-05T09:13:56.417Z,20.47
2018-12-05T09:16:25.334Z,25.60
2018-12-05T09:18:54.170Z,29.50
2018-12-05T09:21:23.047Z,28.53
2018-12-05T09:23:51.914Z,31.30
2018-12-05T09:26:20.824Z,38.87
2018-12-05T09:28:49.671Z,30.37
2018-12-05T09:31:18.986Z,35.23
2018-12-05T09:33:47.943Z,42.50
2018-12-05T09:36:16.803Z,27.90
2018-12-05T09:38:46.053Z,38.17
2018-12-05T09:41:15.362Z,31.10
2018-12-05T09:43:44.319Z,32.30
2018-12-05T09:46:13.274Z,27.17
2018-12-05T09:48:42.927Z,36.83
2018-12-05T09:51:11.801Z,24.47
2018-12-05T09:53:40.657Z,19.03
2018-12-05T09:56:09.562Z,19.70
2018-12-05T09:58:38.833Z,24.10
2018-12-05T10:01:07.771Z,26.23
2018-12-05T10:03:36.594Z,24.67
2018-12-05T10:06:05.864Z,22.10
2018-12-05T10:08:34.846Z,23.23
2018-12-05T10:11:04.093Z,27.10
2018-12-05T10:13:33.440Z,22.22
2018-12-05T10:16:02.753Z,19.47
2018-12-05T10:18:32.121Z,28.20
2018-12-05T10:21:01.063Z,18.10
2018-12-05T10:23:29.953Z,18.10
2018-12-05T10:25:58.843Z,21.10
2018-12-05T10:28:27.730Z,23.53
2018-12-05T10:30:56.695Z,15.80
2018-12-05T10:33:25.949Z,21.10
2018-12-05T10:35:55.233Z,17.90
2018-12-05T10:38:24.226Z,25.53
2018-12-05T10:40:53.470Z,14.73
2018-12-05T10:43:22.409Z,22.90
2018-12-05T10:45:51.254Z,20.90
2018-12-05T10:48:20.531Z,25.90
2018-12-05T10:50:49.432Z,22.80
2018-12-05T10:53:18.270Z,24.30
2018-12-05T10:55:47.643Z,19.63
2018-12-05T10:58:16.691Z,27.00
2018-12-05T11:00:50.853Z,25.20
2018-12-05T11:03:30.471Z,21.65
2018-12-05T11:06:05.027Z,32.53
2018-12-05T11:11:44.522Z,23.97
2018-12-05T11:14:18.797Z,26.37
2018-12-05T11:16:56.946Z,28.20
2018-12-05T11:19:31.325Z,33.30
2018-12-05T11:22:05.844Z,29.83
2018-12-05T11:24:37.091Z,31.97
2018-12-05T11:27:06.044Z,26.07
2018-12-05T11:29:34.899Z,29.37
2018-12-05T11:32:03.787Z,27.07
2018-12-05T11:34:33.138Z,19.53
2018-12-05T11:37:02.211Z,25.57
2018-12-05T11:39:31.465Z,26.07
2018-12-05T11:42:00.400Z,25.30
2018-12-05T11:44:29.683Z,22.90
2018-12-05T11:46:58.943Z,19.80
2018-12-05T11:49:27.887Z,22.13
2018-12-05T11:51:56.698Z,25.77
2018-12-05T11:54:25.513Z,26.30
2018-12-05T11:56:54.347Z,19.50
2018-12-05T11:59:23.244Z,25.10
2018-12-05T12:01:52.105Z,25.97
2018-12-05T12:04:21.014Z,18.90
2018-12-05T12:06:50.271Z,29.40
2018-12-05T12:09:20.068Z,28.23
2018-12-05T12:11:49.358Z,20.30
2018-12-05T12:14:19.297Z,22.43
2018-12-05T12:16:48.228Z,28.47
2018-12-05T12:19:17.168Z,27.33
2018-12-05T12:21:46.035Z,30.80
2018-12-05T12:24:17.397Z,25.53
2018-12-05T12:26:47.271Z,28.83
2018-12-05T12:29:16.287Z,25.67
2018-12-05T12:31:45.206Z,27.00
2018-12-05T12:34:14.047Z,23.47
2018-12-05T12:36:42.935Z,23.30
2018-12-05T12:39:11.876Z,21.03
2018-12-05T12:41:40.870Z,25.07
2018-12-05T12:44:10.403Z,22.07
2018-12-05T12:46:39.635Z,20.30
2018-12-05T12:49:08.608Z,20.93
2018-12-05T12:51:37.485Z,17.33
2018-12-05T12:54:06.640Z,21.03
2018-12-05T12:56:35.872Z,22.50
2018-12-05T12:59:05.281Z,26.07
2018-12-05T13:01:34.254Z,25.97
2018-12-05T13:04:03.160Z,23.23
2018-12-05T13:06:32.462Z,22.73
2018-12-05T13:09:01.463Z,17.85
2018-12-05T13:11:30.365Z,30.62
2018-12-05T13:13:59.264Z,30.90
2018-12-05T13:16:28.535Z,20.03
2018-12-05T13:18:57.559Z,19.90
2018-12-05T13:21:26.446Z,25.20
2018-12-05T13:23:55.352Z,23.17
2018-12-05T13:26:24.635Z,26.70
2018-12-05T13:28:54.064Z,29.20
2018-12-05T13:31:22.981Z,17.57
2018-12-05T13:33:51.907Z,22.83
2018-12-05T13:36:21.265Z,19.63
2018-12-05T13:38:50.203Z,21.83
2018-12-05T13:41:19.037Z,25.77
2018-12-05T13:43:48.322Z,17.97
2018-12-05T13:46:17.612Z,21.30
2018-12-05T13:48:46.637Z,24.73
2018-12-05T13:51:15.587Z,19.17
2018-12-05T13:53:44.830Z,21.47
2018-12-05T13:56:13.839Z,21.50
2018-12-05T13:58:43.104Z,27.22
2018-12-05T14:01:12.035Z,23.90
2018-12-05T14:03:40.897Z,17.03
2018-12-05T14:06:10.147Z,19.33
2018-12-05T14:08:39.226Z,25.53
2018-12-05T14:11:08.506Z,19.43
2018-12-05T14:13:37.838Z,24.67
2018-12-05T14:16:06.851Z,24.30
2018-12-05T14:18:35.719Z,17.40
2018-12-05T14:21:05.068Z,20.17
2018-12-05T14:23:34.063Z,18.03
2018-12-05T14:26:02.908Z,20.57
2018-12-05T14:28:31.828Z,24.13
2018-12-05T14:31:01.205Z,19.10
2018-12-05T14:33:31.158Z,22.53
2018-12-05T14:36:00.495Z,20.50
2018-12-05T14:38:29.459Z,20.37
2018-12-05T14:40:58.825Z,19.40
2018-12-05T14:43:27.763Z,24.67
2018-12-05T14:45:56.976Z,17.83
2018-12-05T14:48:25.935Z,23.83
2018-12-05T14:50:55.195Z,22.60
2018-12-05T14:53:24.217Z,23.77
2018-12-05T14:55:53.108Z,22.47
2018-12-05T14:58:21.996Z,23.17
2018-12-05T15:00:51.280Z,17.50
2018-12-05T15:03:20.229Z,25.90
2018-12-05T15:05:49.516Z,25.27
2018-12-05T15:08:18.989Z,16.27
2018-12-05T15:10:47.856Z,16.20
2018-12-05T15:13:17.112Z,17.90
2018-12-05T15:15:46.505Z,24.50
2018-12-05T15:18:15.516Z,21.97
2018-12-05T15:20:44.812Z,23.40
2018-12-05T15:23:13.843Z,20.63
2018-12-05T15:25:43.264Z,24.17
2018-12-05T15:28:12.254Z,18.20
2018-12-05T15:30:41.551Z,26.70
2018-12-05T15:33:10.926Z,22.63
2018-12-05T15:35:40.278Z,21.13
2018-12-05T15:38:09.302Z,24.00
2018-12-05T15:40:38.580Z,18.93
2018-12-05T15:43:07.876Z,22.17
2018-12-05T15:45:37.280Z,27.17
2018-12-05T15:48:06.245Z,26.80
2018-12-05T15:50:35.134Z,21.07
2018-12-05T15:53:04.423Z,23.17
2018-12-05T15:55:33.415Z,20.50
2018-12-05T15:58:02.754Z,22.70
2018-12-05T16:00:32.383Z,23.77
2018-12-05T16:03:01.632Z,27.30
2018-12-05T16:05:31.138Z,21.45
2018-12-05T16:08:00.103Z,20.93
2018-12-05T16:10:29.036Z,20.90
2018-12-05T16:12:57.899Z,32.43
2018-12-05T16:15:26.928Z,20.80
2018-12-05T16:18:02.555Z,21.10
2018-12-05T16:20:31.491Z,23.90
2018-12-05T16:23:00.672Z,24.07
2018-12-05T16:25:30.042Z,26.23
2018-12-05T16:27:58.967Z,24.10
2018-12-05T16:30:28.225Z,26.00
2018-12-05T16:32:57.204Z,29.73
2018-12-05T16:35:26.027Z,30.03
2018-12-05T16:37:54.857Z,30.50
2018-12-05T16:40:24.051Z,28.37
2018-12-05T16:42:53.364Z,27.77
2018-12-05T16:45:22.305Z,24.53
2018-12-05T16:47:51.108Z,22.83
2018-12-05T16:50:20.383Z,24.27
2018-12-05T16:52:50.583Z,17.83
2018-12-05T16:55:20.432Z,15.13
2018-12-05T16:57:49.632Z,22.13
2018-12-05T17:00:19.325Z,15.38
2018-12-05T17:02:48.326Z,19.20
2018-12-05T17:05:17.560Z,18.60
2018-12-05T17:07:46.491Z,20.27
2018-12-05T17:10:15.316Z,17.90
2018-12-05T17:12:44.547Z,15.83
2018-12-05T17:15:13.466Z,21.80
2018-12-05T17:17:42.698Z,19.83
2018-12-05T17:20:11.642Z,21.10
2018-12-05T17:22:40.953Z,19.37
2018-12-05T17:25:10.514Z,24.03
2018-12-05T17:27:39.548Z,22.73
2018-12-05T17:30:09.204Z,28.90
2018-12-05T17:32:38.631Z,33.97
2018-12-05T17:35:08.310Z,37.07
2018-12-05T17:37:37.295Z,25.43
2018-12-05T17:40:06.847Z,32.93
2018-12-05T17:42:35.874Z,30.53
2018-12-05T17:45:05.488Z,29.27
2018-12-05T17:47:34.543Z,31.80
2018-12-05T17:50:04.116Z,33.97
2018-12-05T17:52:33.858Z,27.63
2018-12-05T17:55:03.224Z,33.70
2018-12-05T17:57:32.223Z,36.48
2018-12-05T18:00:01.550Z,36.17
2018-12-05T18:02:30.613Z,40.28
2018-12-05T18:04:59.905Z,31.43
2018-12-05T18:07:29.235Z,35.70
2018-12-05T18:09:58.636Z,40.63
2018-12-05T18:12:27.667Z,32.03
2018-12-05T18:14:56.629Z,39.43
2018-12-05T18:17:25.634Z,43.13
2018-12-05T18:19:54.887Z,41.20
2018-12-05T18:22:24.237Z,26.90
2018-12-05T18:24:53.186Z,32.33
2018-12-05T18:27:21.987Z,25.93
2018-12-05T18:29:50.827Z,28.43
2018-12-05T18:32:19.866Z,30.47
2018-12-05T18:34:48.671Z,29.90
2018-12-05T18:37:17.490Z,32.40
2018-12-05T18:39:46.662Z,27.63
2018-12-05T18:42:18.389Z,36.03
2018-12-05T18:44:47.200Z,31.93
2018-12-05T18:47:17.448Z,25.77
2018-12-05T18:49:46.765Z,29.70
2018-12-05T18:52:15.723Z,34.60
2018-12-05T18:54:44.554Z,32.83
2018-12-05T18:57:13.817Z,35.53
2018-12-05T18:59:43.224Z,35.93
2018-12-05T19:02:12.663Z,33.53
2018-12-05T19:04:42.024Z,36.67
2018-12-05T19:07:10.973Z,35.07
2018-12-05T19:09:39.788Z,37.73
2018-12-05T19:12:09.102Z,29.47
2018-12-05T19:14:43.292Z,29.67
2018-12-05T19:17:12.503Z,26.40
2018-12-05T19:19:42.153Z,20.60
2018-12-05T19:22:11.216Z,19.57
2018-12-05T19:24:40.047Z,15.17
2018-12-05T19:27:08.858Z,17.77
2018-12-05T19:29:37.677Z,17.93
2018-12-05T19:32:06.888Z,17.10
2018-12-05T19:34:35.888Z,19.50
2018-12-05T19:37:05.234Z,21.67
2018-12-05T19:39:34.266Z,22.33
2018-12-05T19:42:04.095Z,23.33
2018-12-05T19:44:33.467Z,27.73
2018-12-05T19:47:08.866Z,30.33
2018-12-05T19:49:38.137Z,26.90
2018-12-05T19:52:07.088Z,26.90
2018-12-05T19:54:35.956Z,30.33
2018-12-05T19:57:05.279Z,12.90
2018-12-05T19:59:34.126Z,9.68
2018-12-05T20:02:03.343Z,10.53
2018-12-05T20:04:32.383Z,13.93
2018-12-05T20:07:01.547Z,9.70
2018-12-05T20:09:30.900Z,18.83
2018-12-05T20:12:00.396Z,21.03
2018-12-05T20:14:30.380Z,14.03
2018-12-05T20:16:59.335Z,13.57
2018-12-05T20:19:28.343Z,15.07
2018-12-05T20:21:57.656Z,10.73
2018-12-05T20:24:26.661Z,19.10
2018-12-05T20:26:55.973Z,15.23
2018-12-05T20:29:24.883Z,15.17
2018-12-05T20:31:54.153Z,18.67
2018-12-05T20:34:23.153Z,23.30
2018-12-05T20:36:52.042Z,18.20
2018-12-05T20:39:25.957Z,16.50
2018-12-05T20:42:00.395Z,20.90
2018-12-05T20:44:29.897Z,22.77
2018-12-05T20:46:59.257Z,20.63
2018-12-05T20:49:28.664Z,18.47
2018-12-05T20:51:58.008Z,20.10
2018-12-05T20:54:27.062Z,17.17
2018-12-05T20:56:55.894Z,14.77
2018-12-05T20:59:24.848Z,22.73
2018-12-05T21:01:54.503Z,17.27
2018-12-05T21:04:23.931Z,22.60
2018-12-05T21:06:53.014Z,20.03
2018-12-05T21:09:23.168Z,24.20
2018-12-05T21:11:52.555Z,27.97
2018-12-05T21:14:21.715Z,26.57
2018-12-05T21:16:51.020Z,31.07
2018-12-05T21:19:20.453Z,29.27
2018-12-05T21:21:50.331Z,35.47
2018-12-05T21:24:19.323Z,38.20
2018-12-05T21:26:48.782Z,28.97
2018-12-05T21:29:18.730Z,35.73
2018-12-05T21:31:48.064Z,35.50
2018-12-05T21:34:17.194Z,34.37
2018-12-05T21:36:46.407Z,37.47
2018-12-05T21:39:15.351Z,49.70
2018-12-05T21:41:44.651Z,40.03
2018-12-05T21:44:14.046Z,32.00
2018-12-05T21:46:44.791Z,42.93
2018-12-05T21:49:20.791Z,48.57
2018-12-05T21:51:50.281Z,40.30
2018-12-05T21:54:19.715Z,46.33
2018-12-05T21:56:48.722Z,38.23
2018-12-05T21:59:18.307Z,52.30
2018-12-05T22:01:47.168Z,61.97
2018-12-05T22:04:16.163Z,43.70
2018-12-05T22:06:45.378Z,48.97
2018-12-05T22:09:14.294Z,39.37
2018-12-05T22:11:43.661Z,42.70
2018-12-05T22:14:13.003Z,40.63
2018-12-05T22:16:42.027Z,43.50
2018-12-05T22:19:10.955Z,35.57
2018-12-05T22:21:39.915Z,40.57
2018-12-05T22:24:09.273Z,37.17
2018-12-05T22:26:38.670Z,42.03
2018-12-05T22:29:08.020Z,30.57
2018-12-05T22:31:36.995Z,41.63
2018-12-05T22:34:06.284Z,49.30
2018-12-05T22:36:35.381Z,43.63
2018-12-05T22:39:07.280Z,40.30
2018-12-05T22:41:36.470Z,40.45
2018-12-05T22:44:05.791Z,47.87
2018-12-05T22:46:35.137Z,41.57
2018-12-05T22:49:04.439Z,41.00
2018-12-05T22:51:33.782Z,41.93
2018-12-05T22:54:03.128Z,33.30
2018-12-05T22:56:32.545Z,42.73
2018-12-05T22:59:01.900Z,37.27
2018-12-05T23:01:31.284Z,36.42
2018-12-05T23:04:00.704Z,34.53
2018-12-05T23:06:30.092Z,38.73
2018-12-05T23:08:59.055Z,31.10
2018-12-05T23:11:27.961Z,37.20
2018-12-05T23:13:57.812Z,33.33
2018-12-05T23:16:26.803Z,38.93
2018-12-05T23:18:56.116Z,39.93
2018-12-05T23:21:25.500Z,35.10
2018-12-05T23:23:54.844Z,30.87
2018-12-05T23:26:24.278Z,36.37
2018-12-05T23:28:53.271Z,34.70
2018-12-05T23:31:22.518Z,33.60
2018-12-05T23:33:51.913Z,35.67
2018-12-05T23:36:20.926Z,33.87
2018-12-05T23:38:50.187Z,32.17
2018-12-05T23:41:19.533Z,37.83
2018-12-05T23:43:48.497Z,37.87
2018-12-05T23:46:17.799Z,40.87
2018-12-05T23:48:47.287Z,30.33
2018-12-05T23:51:16.863Z,36.07
2018-12-05T23:53:45.826Z,28.97
2018-12-05T23:56:15.362Z,33.90
2018-12-05T23:58:51.208Z,28.90
